Terminal Aerodrome Forecast
Issued by NWS

Home | Current Version | Previous Version | Text Only | Print | Product List | Glossary On
Versions: 1 2 3 4 5 6 7 8 9 10 11 12 13 14 15 16 17 18 19 20 21 22
000
FTUS43 KGRB 202300
TAFAUW
TAF
KAUW 202336Z 2100/2124 28014G22KT P6SM BKN025 OVC035
     FM210100 27011KT P6SM OVC040
     FM210600 27012KT P6SM VCSH BKN025 OVC060
     FM211100 28013KT P6SM -SN BKN018 OVC030
      TEMPO 2111/2115 4SM -SN BR
     FM211500 28016G25KT P6SM -RASN BKN025 OVC040=

USA.gov is the U.S. government's official web portal to all federal, state and local government web resources and services.